sensor_id;sensor_type;location;lat;lon;timestamp;pressure;altitude;pressure_sealevel;temperature;humidity
51359;BME280;37448;51.588;7.248;2023-01-27T00:00:05;101733.56;;;1.74;91.78
51359;BME280;37448;51.588;7.248;2023-01-27T00:02:12;101733.56;;;1.74;91.34
51359;BME280;37448;51.588;7.248;2023-01-27T00:04:13;101737.81;;;1.74;90.88
51359;BME280;37448;51.588;7.248;2023-01-27T00:06:13;101730.91;;;1.72;89.91
51359;BME280;37448;51.588;7.248;2023-01-27T00:08:14;101736.06;;;1.72;90.21
51359;BME280;37448;51.588;7.248;2023-01-27T00:10:16;101742.13;;;1.73;90.71
51359;BME280;37448;51.588;7.248;2023-01-27T00:12:19;101736.06;;;1.72;90.44
51359;BME280;37448;51.588;7.248;2023-01-27T00:14:38;101741.22;;;1.72;91.23
51359;BME280;37448;51.588;7.248;2023-01-27T00:16:39;101741.22;;;1.72;90.60
51359;BME280;37448;51.588;7.248;2023-01-27T00:18:39;101741.22;;;1.72;90.30
51359;BME280;37448;51.588;7.248;2023-01-27T00:20:39;101741.22;;;1.72;91.41
51359;BME280;37448;51.588;7.248;2023-01-27T00:22:58;101739.47;;;1.71;91.72
51359;BME280;37448;51.588;7.248;2023-01-27T00:25:17;101744.59;;;1.70;91.50
51359;BME280;37448;51.588;7.248;2023-01-27T00:27:18;101744.53;;;1.68;91.75
51359;BME280;37448;51.588;7.248;2023-01-27T00:29:18;101742.78;;;1.67;90.77
51359;BME280;37448;51.588;7.248;2023-01-27T00:31:18;101736.72;;;1.67;90.97
51359;BME280;37448;51.588;7.248;2023-01-27T00:33:38;101745.28;;;1.66;90.67
51359;BME280;37448;51.588;7.248;2023-01-27T00:35:38;101735.88;;;1.66;90.93
51359;BME280;37448;51.588;7.248;2023-01-27T00:37:38;101744.53;;;1.68;91.33
51359;BME280;37448;51.588;7.248;2023-01-27T00:39:41;101747.94;;;1.67;90.65
51359;BME280;37448;51.588;7.248;2023-01-27T00:41:43;101748.78;;;1.68;90.80
51359;BME280;37448;51.588;7.248;2023-01-27T00:43:50;101740.19;;;1.67;90.50
51359;BME280;37448;51.588;7.248;2023-01-27T00:45:52;101747.16;;;1.70;90.61
51359;BME280;37448;51.588;7.248;2023-01-27T00:47:52;101741.19;;;1.71;90.44
51359;BME280;37448;51.588;7.248;2023-01-27T00:49:54;101752.34;;;1.71;89.96
51359;BME280;37448;51.588;7.248;2023-01-27T00:51:54;101740.31;;;1.70;90.36
51359;BME280;37448;51.588;7.248;2023-01-27T00:53:55;101752.31;;;1.70;90.22
51359;BME280;37448;51.588;7.248;2023-01-27T00:55:55;101749.69;;;1.68;89.86
51359;BME280;37448;51.588;7.248;2023-01-27T00:57:57;101746.38;;;1.72;89.46
51359;BME280;37448;51.588;7.248;2023-01-27T00:59:57;101740.38;;;1.72;89.40
51359;BME280;37448;51.588;7.248;2023-01-27T01:01:57;101739.47;;;1.71;89.78
51359;BME280;37448;51.588;7.248;2023-01-27T01:03:59;101750.66;;;1.72;89.42
51359;BME280;37448;51.588;7.248;2023-01-27T01:06:04;101748.09;;;1.72;89.33
51359;BME280;37448;51.588;7.248;2023-01-27T01:08:05;101754.09;;;1.72;90.05
51359;BME280;37448;51.588;7.248;2023-01-27T01:10:05;101754.09;;;1.72;90.26
51359;BME280;37448;51.588;7.248;2023-01-27T01:12:06;101744.63;;;1.71;89.96
51359;BME280;37448;51.588;7.248;2023-01-27T01:14:06;101754.94;;;1.71;90.20
51359;BME280;37448;51.588;7.248;2023-01-27T01:16:09;101754.91;;;1.70;90.62
51359;BME280;37448;51.588;7.248;2023-01-27T01:18:10;101758.22;;;1.67;90.48
51359;BME280;37448;51.588;7.248;2023-01-27T01:20:11;101767.72;;;1.68;90.87
51359;BME280;37448;51.588;7.248;2023-01-27T01:22:11;101778.75;;;1.64;90.44
51359;BME280;37448;51.588;7.248;2023-01-27T01:24:12;101782.13;;;1.63;90.73
51359;BME280;37448;51.588;7.248;2023-01-27T01:26:14;101784.63;;;1.60;90.77
51359;BME280;37448;51.588;7.248;2023-01-27T01:28:15;101778.41;;;1.55;90.45
51359;BME280;37448;51.588;7.248;2023-01-27T01:30:16;101783.56;;;1.55;90.50
51359;BME280;37448;51.588;7.248;2023-01-27T01:32:16;101791.19;;;1.52;90.15
51359;BME280;37448;51.588;7.248;2023-01-27T01:34:17;101790.31;;;1.51;90.65
51359;BME280;37448;51.588;7.248;2023-01-27T01:36:19;101791.88;;;1.46;90.33
51359;BME280;37448;51.588;7.248;2023-01-27T01:38:19;101802.84;;;1.42;90.21
51359;BME280;37448;51.588;7.248;2023-01-27T01:40:21;101808.91;;;1.42;90.65
51359;BME280;37448;51.588;7.248;2023-01-27T01:42:21;101808.81;;;1.41;90.92
51359;BME280;37448;51.588;7.248;2023-01-27T01:44:25;101802.75;;;1.39;90.36
51359;BME280;37448;51.588;7.248;2023-01-27T01:46:25;101807.88;;;1.37;90.43
51359;BME280;37448;51.588;7.248;2023-01-27T01:48:31;101809.44;;;1.34;89.99
51359;BME280;37448;51.588;7.248;2023-01-27T01:50:33;101811.81;;;1.27;89.36
51359;BME280;37448;51.588;7.248;2023-01-27T01:52:35;101811.09;;;1.32;90.06
51359;BME280;37448;51.588;7.248;2023-01-27T01:54:40;101814.38;;;1.27;90.15
51359;BME280;37448;51.588;7.248;2023-01-27T01:56:49;101810.91;;;1.27;89.74
51359;BME280;37448;51.588;7.248;2023-01-27T01:58:55;101809.25;;;1.27;89.93
51359;BME280;37448;51.588;7.248;2023-01-27T02:00:57;101806.50;;;1.23;89.76
51359;BME280;37448;51.588;7.248;2023-01-27T02:02:57;101808.13;;;1.21;89.84
51359;BME280;37448;51.588;7.248;2023-01-27T02:05:03;101808.13;;;1.21;90.01
51359;BME280;37448;51.588;7.248;2023-01-27T02:07:25;101815.75;;;1.18;90.54
51359;BME280;37448;51.588;7.248;2023-01-27T02:09:28;101819.06;;;1.15;90.76
51359;BME280;37448;51.588;7.248;2023-01-27T02:11:28;101819.97;;;1.16;90.95
51359;BME280;37448;51.588;7.248;2023-01-27T02:13:29;101819.06;;;1.15;91.46
51359;BME280;37448;51.588;7.248;2023-01-27T02:15:30;101820.63;;;1.10;91.37
51359;BME280;37448;51.588;7.248;2023-01-27T02:17:30;101814.59;;;1.09;91.41
51359;BME280;37448;51.588;7.248;2023-01-27T02:21:42;101807.56;;;1.05;92.56
51359;BME280;37448;51.588;7.248;2023-01-27T02:23:51;101813.53;;;1.04;92.35
51359;BME280;37448;51.588;7.248;2023-01-27T02:26:02;101812.81;;;1.08;92.94
51359;BME280;37448;51.588;7.248;2023-01-27T02:28:07;101816.09;;;1.04;93.00
51359;BME280;37448;51.588;7.248;2023-01-27T02:30:08;101814.25;;;1.00;92.87
51359;BME280;37448;51.588;7.248;2023-01-27T02:32:21;101816.00;;;1.01;92.84
51359;BME280;37448;51.588;7.248;2023-01-27T02:34:27;101806.41;;;0.97;93.02
51359;BME280;37448;51.588;7.248;2023-01-27T02:36:31;101810.69;;;0.96;93.48
51359;BME280;37448;51.588;7.248;2023-01-27T02:38:35;101806.41;;;0.97;93.26
51359;BME280;37448;51.588;7.248;2023-01-27T02:40:37;101815.81;;;0.96;93.54
51359;BME280;37448;51.588;7.248;2023-01-27T02:42:38;101810.56;;;0.93;93.81
51359;BME280;37448;51.588;7.248;2023-01-27T02:44:39;101807.19;;;0.94;93.40
51359;BME280;37448;51.588;7.248;2023-01-27T02:46:39;101820.09;;;0.96;93.84
51359;BME280;37448;51.588;7.248;2023-01-27T02:48:40;101813.13;;;0.93;94.07
51359;BME280;37448;51.588;7.248;2023-01-27T02:50:41;101808.09;;;0.96;93.87
51359;BME280;37448;51.588;7.248;2023-01-27T02:52:42;101821.78;;;0.95;94.27
51359;BME280;37448;51.588;7.248;2023-01-27T02:54:43;101820.09;;;0.96;94.19
51359;BME280;37448;51.588;7.248;2023-01-27T02:56:43;101810.75;;;0.98;93.87
51359;BME280;37448;51.588;7.248;2023-01-27T02:58:46;101820.97;;;0.96;94.60
51359;BME280;37448;51.588;7.248;2023-01-27T03:00:50;101813.25;;;0.96;94.53
51359;BME280;37448;51.588;7.248;2023-01-27T03:02:51;101815.81;;;0.96;94.50
51359;BME280;37448;51.588;7.248;2023-01-27T03:04:51;101814.84;;;0.93;94.47
51359;BME280;37448;51.588;7.248;2023-01-27T03:06:53;101822.69;;;0.96;94.41
51359;BME280;37448;51.588;7.248;2023-01-27T03:08:53;101818.41;;;0.96;95.06
51359;BME280;37448;51.588;7.248;2023-01-27T03:10:54;101820.19;;;0.97;94.80
51359;BME280;37448;51.588;7.248;2023-01-27T03:12:55;101815.59;;;0.90;95.11
51359;BME280;37448;51.588;7.248;2023-01-27T03:14:56;101812.28;;;0.93;95.26
51359;BME280;37448;51.588;7.248;2023-01-27T03:17:15;101807.25;;;0.96;94.73
51359;BME280;37448;51.588;7.248;2023-01-27T03:19:34;101808.25;;;0.99;94.63
51359;BME280;37448;51.588;7.248;2023-01-27T03:21:36;101807.25;;;0.96;95.24
51359;BME280;37448;51.588;7.248;2023-01-27T03:23:36;101808.00;;;0.93;95.66
51359;BME280;37448;51.588;7.248;2023-01-27T03:25:42;101809.75;;;0.94;94.97
51359;BME280;37448;51.588;7.248;2023-01-27T03:27:42;101808.94;;;0.95;94.94
51359;BME280;37448;51.588;7.248;2023-01-27T03:30:21;101809.81;;;0.96;95.12
51359;BME280;37448;51.588;7.248;2023-01-27T03:32:38;101808.94;;;0.95;95.56
51359;BME280;37448;51.588;7.248;2023-01-27T03:35:06;101808.09;;;0.96;95.35
51359;BME280;37448;51.588;7.248;2023-01-27T03:37:08;101808.25;;;0.99;95.63
51359;BME280;37448;51.588;7.248;2023-01-27T03:39:29;101800.44;;;0.98;95.38
51359;BME280;37448;51.588;7.248;2023-01-27T03:41:48;101805.59;;;0.98;95.35
51359;BME280;37448;51.588;7.248;2023-01-27T03:44:09;101802.09;;;0.96;95.98
51359;BME280;37448;51.588;7.248;2023-01-27T03:46:28;101815.03;;;0.97;95.57
51359;BME280;37448;51.588;7.248;2023-01-27T03:48:28;101811.63;;;0.98;95.24
51359;BME280;37448;51.588;7.248;2023-01-27T03:50:31;101806.53;;;1.00;95.45
51359;BME280;37448;51.588;7.248;2023-01-27T03:52:36;101808.25;;;0.99;95.98
51359;BME280;37448;51.588;7.248;2023-01-27T03:54:37;101806.53;;;1.00;95.83
51359;BME280;37448;51.588;7.248;2023-01-27T03:56:37;101807.34;;;0.99;95.34
51359;BME280;37448;51.588;7.248;2023-01-27T03:58:37;101810.81;;;0.99;95.80
51359;BME280;37448;51.588;7.248;2023-01-27T04:00:38;101810.81;;;0.99;95.90
51359;BME280;37448;51.588;7.248;2023-01-27T04:02:39;101801.47;;;1.02;95.70
51359;BME280;37448;51.588;7.248;2023-01-27T04:04:58;101802.31;;;1.02;95.61
51359;BME280;37448;51.588;7.248;2023-01-27T04:07:17;101804.19;;;1.06;95.48
51359;BME280;37448;51.588;7.248;2023-01-27T04:09:26;101807.56;;;1.05;95.76
51359;BME280;37448;51.588;7.248;2023-01-27T04:11:27;101814.34;;;1.03;95.41
51359;BME280;37448;51.588;7.248;2023-01-27T04:13:47;101804.19;;;1.06;95.59
51359;BME280;37448;51.588;7.248;2023-01-27T04:15:47;101799.03;;;1.06;96.07
51359;BME280;37448;51.588;7.248;2023-01-27T04:17:48;101798.09;;;1.04;95.94
51359;BME280;37448;51.588;7.248;2023-01-27T04:19:48;101801.59;;;1.06;95.61
51359;BME280;37448;51.588;7.248;2023-01-27T04:21:49;101805.94;;;1.07;96.16
51359;BME280;37448;51.588;7.248;2023-01-27T04:23:50;101806.75;;;1.06;95.51
51359;BME280;37448;51.588;7.248;2023-01-27T04:25:50;101806.00;;;1.09;95.78
51359;BME280;37448;51.588;7.248;2023-01-27T04:27:53;101808.56;;;1.09;95.56
51359;BME280;37448;51.588;7.248;2023-01-27T04:29:54;101805.09;;;1.08;95.82
51359;BME280;37448;51.588;7.248;2023-01-27T04:31:54;101802.66;;;1.11;96.18
51359;BME280;37448;51.588;7.248;2023-01-27T04:33:55;101807.69;;;1.08;95.72
51359;BME280;37448;51.588;7.248;2023-01-27T04:35:55;101807.81;;;1.11;95.74
51359;BME280;37448;51.588;7.248;2023-01-27T04:37:55;101807.81;;;1.11;95.76
51359;BME280;37448;51.588;7.248;2023-01-27T04:39:56;101811.25;;;1.12;95.84
51359;BME280;37448;51.588;7.248;2023-01-27T04:41:57;101812.13;;;1.12;95.59
51359;BME280;37448;51.588;7.248;2023-01-27T04:43:57;101819.91;;;1.14;95.37
51359;BME280;37448;51.588;7.248;2023-01-27T04:45:57;101816.47;;;1.13;95.65
51359;BME280;37448;51.588;7.248;2023-01-27T04:47:58;101812.19;;;1.14;96.10
51359;BME280;37448;51.588;7.248;2023-01-27T04:49:58;101819.16;;;1.17;96.06
51359;BME280;37448;51.588;7.248;2023-01-27T04:51:58;101820.94;;;1.19;96.03
51359;BME280;37448;51.588;7.248;2023-01-27T04:53:59;101820.06;;;1.19;96.00
51359;BME280;37448;51.588;7.248;2023-01-27T04:56:02;101826.97;;;1.20;95.88
51359;BME280;37448;51.588;7.248;2023-01-27T04:58:04;101823.56;;;1.21;95.82
51359;BME280;37448;51.588;7.248;2023-01-27T05:00:05;101827.91;;;1.22;95.50
51359;BME280;37448;51.588;7.248;2023-01-27T05:02:05;101827.97;;;1.23;95.78
51359;BME280;37448;51.588;7.248;2023-01-27T05:04:06;101826.22;;;1.22;95.61
51359;BME280;37448;51.588;7.248;2023-01-27T05:06:08;101829.72;;;1.24;95.49
51359;BME280;37448;51.588;7.248;2023-01-27T05:08:09;101835.72;;;1.25;95.19
51359;BME280;37448;51.588;7.248;2023-01-27T05:10:10;101829.75;;;1.26;95.23
51359;BME280;37448;51.588;7.248;2023-01-27T05:12:10;101833.25;;;1.28;94.83
51359;BME280;37448;51.588;7.248;2023-01-27T05:14:10;101835.09;;;1.31;95.32
51359;BME280;37448;51.588;7.248;2023-01-27T05:16:20;101835.94;;;1.31;95.01
51359;BME280;37448;51.588;7.248;2023-01-27T05:18:21;101835.13;;;1.32;94.94
51359;BME280;37448;51.588;7.248;2023-01-27T05:20:21;101832.53;;;1.32;94.62
51359;BME280;37448;51.588;7.248;2023-01-27T05:22:21;101841.22;;;1.34;94.75
51359;BME280;37448;51.588;7.248;2023-01-27T05:24:22;101846.38;;;1.34;94.75
51359;BME280;37448;51.588;7.248;2023-01-27T05:26:24;101848.13;;;1.35;94.86
51359;BME280;37448;51.588;7.248;2023-01-27T05:28:25;101842.97;;;1.35;94.85
51359;BME280;37448;51.588;7.248;2023-01-27T05:30:26;101844.72;;;1.36;95.01
51359;BME280;37448;51.588;7.248;2023-01-27T05:32:26;101844.72;;;1.36;94.83
51359;BME280;37448;51.588;7.248;2023-01-27T05:34:26;101848.22;;;1.38;95.25
51359;BME280;37448;51.588;7.248;2023-01-27T05:36:28;101839.69;;;1.39;94.53
51359;BME280;37448;51.588;7.248;2023-01-27T05:38:29;101846.59;;;1.40;94.62
51359;BME280;37448;51.588;7.248;2023-01-27T05:40:29;101855.13;;;1.39;94.82
51359;BME280;37448;51.588;7.248;2023-01-27T05:42:30;101850.09;;;1.42;94.46
51359;BME280;37448;51.588;7.248;2023-01-27T05:44:31;101855.25;;;1.42;94.86
51359;BME280;37448;51.588;7.248;2023-01-27T05:46:31;101856.09;;;1.43;94.63
51359;BME280;37448;51.588;7.248;2023-01-27T05:48:34;101846.63;;;1.42;94.51
51359;BME280;37448;51.588;7.248;2023-01-27T05:50:35;101853.50;;;1.41;94.57
51359;BME280;37448;51.588;7.248;2023-01-27T05:52:35;101852.66;;;1.42;94.88
51359;BME280;37448;51.588;7.248;2023-01-27T05:54:35;101850.94;;;1.43;94.92
51359;BME280;37448;51.588;7.248;2023-01-27T05:56:36;101850.09;;;1.42;94.59
51359;BME280;37448;51.588;7.248;2023-01-27T05:58:37;101851.84;;;1.43;94.70
51359;BME280;37448;51.588;7.248;2023-01-27T06:00:37;101851.84;;;1.43;94.87
51359;BME280;37448;51.588;7.248;2023-01-27T06:02:37;101853.59;;;1.45;95.11
51359;BME280;37448;51.588;7.248;2023-01-27T06:04:38;101843.28;;;1.45;94.89
51359;BME280;37448;51.588;7.248;2023-01-27T06:06:38;101850.19;;;1.46;94.68
51359;BME280;37448;51.588;7.248;2023-01-27T06:08:39;101850.19;;;1.46;94.90
51359;BME280;37448;51.588;7.248;2023-01-27T06:10:39;101853.59;;;1.45;94.27
51359;BME280;37448;51.588;7.248;2023-01-27T06:12:40;101853.59;;;1.45;94.62
51359;BME280;37448;51.588;7.248;2023-01-27T06:14:40;101852.78;;;1.46;94.38
51359;BME280;37448;51.588;7.248;2023-01-27T06:16:40;101850.19;;;1.46;94.82
51359;BME280;37448;51.588;7.248;2023-01-27T06:18:43;101856.22;;;1.46;94.52
51359;BME280;37448;51.588;7.248;2023-01-27T06:20:44;101862.25;;;1.47;94.25
51359;BME280;37448;51.588;7.248;2023-01-27T06:22:44;101858.84;;;1.48;94.19
51359;BME280;37448;51.588;7.248;2023-01-27T06:24:45;101858.84;;;1.48;94.10
51359;BME280;37448;51.588;7.248;2023-01-27T06:26:46;101864.00;;;1.48;94.35
51359;BME280;37448;51.588;7.248;2023-01-27T06:28:46;101864.00;;;1.48;94.18
51359;BME280;37448;51.588;7.248;2023-01-27T06:30:47;101869.16;;;1.48;93.85
51359;BME280;37448;51.588;7.248;2023-01-27T06:32:47;101866.69;;;1.51;94.24
51359;BME280;37448;51.588;7.248;2023-01-27T06:34:48;101871.00;;;1.52;93.58
51359;BME280;37448;51.588;7.248;2023-01-27T06:36:48;101872.75;;;1.53;94.51
51359;BME280;37448;51.588;7.248;2023-01-27T06:38:49;101871.91;;;1.52;94.01
51359;BME280;37448;51.588;7.248;2023-01-27T06:40:50;101882.19;;;1.52;93.79
51359;BME280;37448;51.588;7.248;2023-01-27T06:42:50;101877.91;;;1.53;93.61
51359;BME280;37448;51.588;7.248;2023-01-27T06:44:51;101881.41;;;1.55;93.92
51359;BME280;37448;51.588;7.248;2023-01-27T06:46:51;101883.94;;;1.53;94.11
51359;BME280;37448;51.588;7.248;2023-01-27T06:48:52;101883.13;;;1.54;93.69
51359;BME280;37448;51.588;7.248;2023-01-27T06:50:54;101886.56;;;1.55;94.05
51359;BME280;37448;51.588;7.248;2023-01-27T06:53:03;101889.13;;;1.55;93.90
51359;BME280;37448;51.588;7.248;2023-01-27T06:55:04;101893.47;;;1.56;93.85
51359;BME280;37448;51.588;7.248;2023-01-27T06:57:04;101890.84;;;1.54;94.20
51359;BME280;37448;51.588;7.248;2023-01-27T06:59:08;101893.47;;;1.56;94.40
51359;BME280;37448;51.588;7.248;2023-01-27T07:01:08;101888.31;;;1.56;94.13
51359;BME280;37448;51.588;7.248;2023-01-27T07:03:10;101893.47;;;1.56;94.30
51359;BME280;37448;51.588;7.248;2023-01-27T07:05:10;101900.25;;;1.54;94.58
51359;BME280;37448;51.588;7.248;2023-01-27T07:07:11;101896.84;;;1.55;94.80
51359;BME280;37448;51.588;7.248;2023-01-27T07:09:11;101903.72;;;1.54;94.79
51359;BME280;37448;51.588;7.248;2023-01-27T07:11:12;101902.00;;;1.55;94.65
51359;BME280;37448;51.588;7.248;2023-01-27T07:13:13;101902.81;;;1.54;95.33
51359;BME280;37448;51.588;7.248;2023-01-27T07:15:13;101907.16;;;1.55;95.29
51359;BME280;37448;51.588;7.248;2023-01-27T07:17:14;101907.16;;;1.55;94.93
51359;BME280;37448;51.588;7.248;2023-01-27T07:19:14;101912.31;;;1.55;94.64
51359;BME280;37448;51.588;7.248;2023-01-27T07:21:15;101914.06;;;1.56;95.42
51359;BME280;37448;51.588;7.248;2023-01-27T07:23:16;101911.44;;;1.54;95.05
51359;BME280;37448;51.588;7.248;2023-01-27T07:25:16;101920.09;;;1.56;94.83
51359;BME280;37448;51.588;7.248;2023-01-27T07:27:16;101920.94;;;1.55;95.32
51359;BME280;37448;51.588;7.248;2023-01-27T07:29:17;101915.72;;;1.54;94.92
51359;BME280;37448;51.588;7.248;2023-01-27T07:31:17;101914.06;;;1.56;95.15
51359;BME280;37448;51.588;7.248;2023-01-27T07:33:18;101919.28;;;1.57;95.28
51359;BME280;37448;51.588;7.248;2023-01-27T07:35:18;101917.59;;;1.58;95.08
51359;BME280;37448;51.588;7.248;2023-01-27T07:37:18;101927.13;;;1.61;95.02
51359;BME280;37448;51.588;7.248;2023-01-27T07:39:19;101922.78;;;1.60;95.32
51359;BME280;37448;51.588;7.248;2023-01-27T07:41:19;101927.94;;;1.60;95.18
51359;BME280;37448;51.588;7.248;2023-01-27T07:43:22;101928.88;;;1.62;94.78
51359;BME280;37448;51.588;7.248;2023-01-27T07:45:24;101934.00;;;1.62;94.73
51359;BME280;37448;51.588;7.248;2023-01-27T07:47:24;101929.75;;;1.62;95.12
51359;BME280;37448;51.588;7.248;2023-01-27T07:49:24;101933.25;;;1.64;95.00
51359;BME280;37448;51.588;7.248;2023-01-27T07:51:25;101930.72;;;1.66;95.15
51359;BME280;37448;51.588;7.248;2023-01-27T07:53:25;101934.19;;;1.66;95.14
51359;BME280;37448;51.588;7.248;2023-01-27T07:55:26;101940.28;;;1.68;94.89
51359;BME280;37448;51.588;7.248;2023-01-27T07:57:26;101938.53;;;1.67;94.15
51359;BME280;37448;51.588;7.248;2023-01-27T07:59:27;101935.19;;;1.70;94.50
51359;BME280;37448;51.588;7.248;2023-01-27T08:01:27;101937.81;;;1.71;94.04
51359;BME280;37448;51.588;7.248;2023-01-27T08:03:28;101927.59;;;1.75;94.79
51359;BME280;37448;51.588;7.248;2023-01-27T08:05:32;101936.25;;;1.77;94.65
51359;BME280;37448;51.588;7.248;2023-01-27T08:07:32;101937.97;;;1.76;94.27
51359;BME280;37448;51.588;7.248;2023-01-27T08:09:32;101937.97;;;1.76;94.66
51359;BME280;37448;51.588;7.248;2023-01-27T08:11:34;101928.53;;;1.77;94.32
51359;BME280;37448;51.588;7.248;2023-01-27T08:13:35;101930.38;;;1.81;94.25
51359;BME280;37448;51.588;7.248;2023-01-27T08:15:36;101930.38;;;1.81;93.51
51359;BME280;37448;51.588;7.248;2023-01-27T08:17:36;101934.75;;;1.82;93.84
51359;BME280;37448;51.588;7.248;2023-01-27T08:19:36;101930.53;;;1.84;94.05
51359;BME280;37448;51.588;7.248;2023-01-27T08:21:37;101933.97;;;1.84;93.46
51359;BME280;37448;51.588;7.248;2023-01-27T08:23:37;101929.72;;;1.86;93.84
51359;BME280;37448;51.588;7.248;2023-01-27T08:25:37;101934.06;;;1.88;92.98
51359;BME280;37448;51.588;7.248;2023-01-27T08:27:38;101941.91;;;1.91;93.71
51359;BME280;37448;51.588;7.248;2023-01-27T08:29:38;101937.63;;;1.91;93.47
51359;BME280;37448;51.588;7.248;2023-01-27T08:31:39;101942.81;;;1.93;93.90
51359;BME280;37448;51.588;7.248;2023-01-27T08:33:41;101945.41;;;1.93;93.96
51359;BME280;37448;51.588;7.248;2023-01-27T08:35:42;101939.50;;;1.95;93.07
51359;BME280;37448;51.588;7.248;2023-01-27T08:37:46;101947.31;;;1.98;93.27
51359;BME280;37448;51.588;7.248;2023-01-27T08:39:46;101942.16;;;1.98;93.42
51359;BME280;37448;51.588;7.248;2023-01-27T08:41:47;101952.53;;;2.00;93.33
51359;BME280;37448;51.588;7.248;2023-01-27T08:43:48;101948.25;;;2.00;93.24
51359;BME280;37448;51.588;7.248;2023-01-27T08:45:50;101946.56;;;2.01;92.41
51359;BME280;37448;51.588;7.248;2023-01-27T08:47:51;101946.59;;;2.03;93.05
51359;BME280;37448;51.588;7.248;2023-01-27T08:49:51;101950.91;;;2.02;92.55
51359;BME280;37448;51.588;7.248;2023-01-27T08:51:53;101950.00;;;2.01;93.03
51359;BME280;37448;51.588;7.248;2023-01-27T08:53:54;101951.75;;;2.03;93.20
51359;BME280;37448;51.588;7.248;2023-01-27T08:56:01;101956.16;;;2.05;92.58
51359;BME280;37448;51.588;7.248;2023-01-27T08:58:01;101959.63;;;2.06;92.96
51359;BME280;37448;51.588;7.248;2023-01-27T09:00:03;101955.44;;;2.09;93.58
51359;BME280;37448;51.588;7.248;2023-01-27T09:02:04;101968.22;;;2.06;92.55
51359;BME280;37448;51.588;7.248;2023-01-27T09:04:05;101970.06;;;2.10;93.09
51359;BME280;37448;51.588;7.248;2023-01-27T09:06:10;101975.19;;;2.09;92.71
51359;BME280;37448;51.588;7.248;2023-01-27T09:08:11;101974.47;;;2.13;93.04
51359;BME280;37448;51.588;7.248;2023-01-27T09:10:12;101969.31;;;2.13;93.36
51359;BME280;37448;51.588;7.248;2023-01-27T09:12:13;101974.47;;;2.13;93.05
51359;BME280;37448;51.588;7.248;2023-01-27T09:14:13;101972.72;;;2.12;92.95
51359;BME280;37448;51.588;7.248;2023-01-27T09:16:14;101973.66;;;2.14;92.83
51359;BME280;37448;51.588;7.248;2023-01-27T09:18:15;101983.13;;;2.15;92.78
51359;BME280;37448;51.588;7.248;2023-01-27T09:20:16;101981.47;;;2.17;93.18
51359;BME280;37448;51.588;7.248;2023-01-27T09:22:16;101984.13;;;2.19;93.16
51359;BME280;37448;51.588;7.248;2023-01-27T09:24:16;101993.66;;;2.21;92.91
51359;BME280;37448;51.588;7.248;2023-01-27T09:26:18;101991.03;;;2.20;93.25
51359;BME280;37448;51.588;7.248;2023-01-27T09:28:18;101991.06;;;2.21;92.79
51359;BME280;37448;51.588;7.248;2023-01-27T09:30:19;101998.91;;;2.24;93.07
51359;BME280;37448;51.588;7.248;2023-01-27T09:32:19;101993.66;;;2.21;93.17
51359;BME280;37448;51.588;7.248;2023-01-27T09:34:19;101993.75;;;2.24;93.09
51359;BME280;37448;51.588;7.248;2023-01-27T09:36:20;101999.72;;;2.23;92.55
51359;BME280;37448;51.588;7.248;2023-01-27T09:38:21;102004.06;;;2.24;92.58
51359;BME280;37448;51.588;7.248;2023-01-27T09:40:37;102003.19;;;2.24;92.90
51359;BME280;37448;51.588;7.248;2023-01-27T09:47:45;102005.78;;;2.24;93.03
51359;BME280;37448;51.588;7.248;2023-01-27T09:50:14;102004.16;;;2.27;92.58
51359;BME280;37448;51.588;7.248;2023-01-27T09:56:52;102005.91;;;2.28;92.63
51359;BME280;37448;51.588;7.248;2023-01-27T10:01:23;102005.06;;;2.28;93.12
51359;BME280;37448;51.588;7.248;2023-01-27T10:22:13;102019.91;;;2.35;92.38
51359;BME280;37448;51.588;7.248;2023-01-27T10:26:41;102009.69;;;2.38;92.64
51359;BME280;37448;51.588;7.248;2023-01-27T10:28:52;102012.28;;;2.38;92.62
51359;BME280;37448;51.588;7.248;2023-01-27T10:31:02;102010.50;;;2.37;92.08
51359;BME280;37448;51.588;7.248;2023-01-27T10:33:21;102014.91;;;2.40;91.55
51359;BME280;37448;51.588;7.248;2023-01-27T10:35:33;102012.41;;;2.41;92.35
51359;BME280;37448;51.588;7.248;2023-01-27T10:37:50;102017.56;;;2.41;92.32
51359;BME280;37448;51.588;7.248;2023-01-27T10:39:59;102021.81;;;2.41;91.24
51359;BME280;37448;51.588;7.248;2023-01-27T10:49:53;102016.75;;;2.44;91.76
51359;BME280;37448;51.588;7.248;2023-01-27T10:52:01;102021.31;;;2.51;91.76
51359;BME280;37448;51.588;7.248;2023-01-27T10:56:34;102020.44;;;2.51;91.41
51359;BME280;37448;51.588;7.248;2023-01-27T10:58:58;102018.72;;;2.51;90.46
51359;BME280;37448;51.588;7.248;2023-01-27T11:01:01;102021.44;;;2.54;90.30
51359;BME280;37448;51.588;7.248;2023-01-27T11:03:10;102017.09;;;2.53;90.21
51359;BME280;37448;51.588;7.248;2023-01-27T11:05:22;102015.53;;;2.58;90.79
51359;BME280;37448;51.588;7.248;2023-01-27T11:07:24;102008.72;;;2.61;91.17
51359;BME280;37448;51.588;7.248;2023-01-27T11:09:30;102014.81;;;2.63;91.04
51359;BME280;37448;51.588;7.248;2023-01-27T11:11:33;102014.84;;;2.64;91.05
51359;BME280;37448;51.588;7.248;2023-01-27T11:13:47;102010.59;;;2.65;90.41
51359;BME280;37448;51.588;7.248;2023-01-27T11:15:48;102014.09;;;2.67;89.86
51359;BME280;37448;51.588;7.248;2023-01-27T11:17:53;101999.53;;;2.69;89.38
51359;BME280;37448;51.588;7.248;2023-01-27T11:20:18;102012.44;;;2.69;89.41
51359;BME280;37448;51.588;7.248;2023-01-27T11:22:27;102003.75;;;2.67;89.27
51359;BME280;37448;51.588;7.248;2023-01-27T11:24:41;102010.69;;;2.68;89.21
51359;BME280;37448;51.588;7.248;2023-01-27T11:26:47;102014.09;;;2.67;89.17
51359;BME280;37448;51.588;7.248;2023-01-27T11:31:14;102009.81;;;2.67;88.97
51359;BME280;37448;51.588;7.248;2023-01-27T11:33:27;102005.53;;;2.68;89.88
51359;BME280;37448;51.588;7.248;2023-01-27T11:35:28;102010.66;;;2.66;89.03
51359;BME280;37448;51.588;7.248;2023-01-27T11:37:38;102004.59;;;2.66;89.19
51359;BME280;37448;51.588;7.248;2023-01-27T11:39:39;102015.00;;;2.69;88.87